createdAt,value
2022-12-11T00:00:23.111Z,19.07
2022-12-11T00:02:50.269Z,19.33
2022-12-11T00:05:17.349Z,19.33
2022-12-11T00:07:44.633Z,20.87
2022-12-11T00:10:11.715Z,20.57
2022-12-11T00:12:39.003Z,21.30
2022-12-11T00:15:06.434Z,20.30
2022-12-11T00:17:33.716Z,20.50
2022-12-11T00:20:00.717Z,19.00
2022-12-11T00:22:29.705Z,19.17
2022-12-11T00:24:56.798Z,18.90
2022-12-11T00:27:24.393Z,18.63
2022-12-11T00:29:51.434Z,17.60
2022-12-11T00:32:18.569Z,17.50
2022-12-11T00:34:45.551Z,16.40
2022-12-11T00:37:12.694Z,16.33
2022-12-11T00:39:42.914Z,16.97
2022-12-11T00:42:10.181Z,16.00
2022-12-11T00:44:37.316Z,15.90
2022-12-11T00:47:04.724Z,15.43
2022-12-11T00:49:31.842Z,15.10
2022-12-11T00:51:58.876Z,15.77
2022-12-11T00:54:25.950Z,14.97
2022-12-11T00:56:53.001Z,15.03
2022-12-11T00:59:20.008Z,14.87
2022-12-11T01:01:47.227Z,14.77
2022-12-11T01:04:14.375Z,15.83
2022-12-11T01:06:41.479Z,15.13
2022-12-11T01:09:27.183Z,14.30
2022-12-11T01:11:54.354Z,14.60
2022-12-11T01:14:21.414Z,14.37
2022-12-11T01:16:48.535Z,15.33
2022-12-11T01:19:15.635Z,15.47
2022-12-11T01:21:42.655Z,15.63
2022-12-11T01:24:09.761Z,15.53
2022-12-11T01:26:36.856Z,16.33
2022-12-11T01:29:04.034Z,14.60
2022-12-11T01:31:31.221Z,15.60
2022-12-11T01:33:58.393Z,15.70
2022-12-11T01:36:25.464Z,16.07
2022-12-11T01:38:54.543Z,14.17
2022-12-11T01:41:22.117Z,15.47
2022-12-11T01:44:27.985Z,17.33
2022-12-11T01:46:55.027Z,15.67
2022-12-11T01:49:26.069Z,16.30
2022-12-11T01:51:58.509Z,15.90
2022-12-11T01:54:27.077Z,16.37
2022-12-11T01:56:58.145Z,14.97
2022-12-11T01:59:29.405Z,14.83
2022-12-11T02:02:11.331Z,16.30
2022-12-11T02:04:40.197Z,15.23
2022-12-11T02:07:07.268Z,13.87
2022-12-11T02:09:37.408Z,14.63
2022-12-11T02:12:31.691Z,14.80
2022-12-11T02:15:36.608Z,14.47
2022-12-11T02:18:26.252Z,14.03
2022-12-11T02:21:06.577Z,15.50
2022-12-11T02:24:01.338Z,14.20
2022-12-11T02:27:06.022Z,14.90
2022-12-11T02:29:42.567Z,14.80
2022-12-11T02:32:16.663Z,14.03
2022-12-11T02:34:51.266Z,16.03
2022-12-11T02:37:24.236Z,16.53
2022-12-11T02:39:54.724Z,15.43
2022-12-11T02:42:23.580Z,16.33
2022-12-11T02:44:51.967Z,15.23
2022-12-11T02:47:21.372Z,15.17
2022-12-11T02:49:50.230Z,15.23
2022-12-11T02:52:21.244Z,15.53
2022-12-11T02:54:51.869Z,14.47
2022-12-11T02:57:28.104Z,14.93
2022-12-11T02:59:55.196Z,15.40
2022-12-11T03:02:23.910Z,16.33
2022-12-11T03:04:51.735Z,15.40
2022-12-11T03:07:23.777Z,14.30
2022-12-11T03:09:51.926Z,15.20
2022-12-11T03:12:23.549Z,14.93
2022-12-11T03:14:51.143Z,14.30
2022-12-11T03:17:26.967Z,15.27
2022-12-11T03:20:01.121Z,15.80
2022-12-11T03:22:34.181Z,15.53
2022-12-11T03:25:12.932Z,15.63
2022-12-11T03:27:54.619Z,14.60
2022-12-11T03:30:23.898Z,15.53
2022-12-11T03:32:56.280Z,15.47
2022-12-11T03:35:42.811Z,16.67
2022-12-11T03:38:25.606Z,17.03
2022-12-11T03:40:56.624Z,16.77
2022-12-11T03:43:25.292Z,17.43
2022-12-11T03:45:54.311Z,17.13
2022-12-11T03:48:23.373Z,17.80
2022-12-11T03:50:51.734Z,20.53
2022-12-11T03:53:20.590Z,17.10
2022-12-11T03:55:49.738Z,17.43
2022-12-11T03:58:16.892Z,17.63
2022-12-11T04:00:44.136Z,17.83
2022-12-11T04:03:14.422Z,17.83
2022-12-11T04:05:47.824Z,16.37
2022-12-11T04:08:15.738Z,16.60
2022-12-11T04:10:42.979Z,16.20
2022-12-11T04:13:11.217Z,16.50
2022-12-11T04:15:39.856Z,14.37
2022-12-11T04:18:26.152Z,13.17
2022-12-11T04:21:15.166Z,14.77
2022-12-11T04:24:00.690Z,14.60
2022-12-11T04:26:28.069Z,15.40
2022-12-11T04:28:55.383Z,13.70
2022-12-11T04:31:23.122Z,14.73
2022-12-11T04:33:50.178Z,14.50
2022-12-11T04:36:17.614Z,15.33
2022-12-11T04:38:44.858Z,14.57
2022-12-11T04:41:14.463Z,16.30
2022-12-11T04:43:45.332Z,14.60
2022-12-11T04:46:17.745Z,14.47
2022-12-11T04:48:45.721Z,20.90
2022-12-11T04:51:13.672Z,15.50
2022-12-11T04:53:41.399Z,15.53
2022-12-11T04:56:10.732Z,16.33
2022-12-11T04:58:38.920Z,15.83
2022-12-11T05:01:18.246Z,15.87
2022-12-11T05:03:46.084Z,15.50
2022-12-11T05:06:13.591Z,15.20
2022-12-11T05:08:42.682Z,14.53
2022-12-11T05:11:12.318Z,14.33
2022-12-11T05:13:39.912Z,14.13
2022-12-11T05:16:09.383Z,14.73
2022-12-11T05:18:36.410Z,15.17
2022-12-11T05:21:06.405Z,15.00
2022-12-11T05:23:33.819Z,13.73
2022-12-11T05:26:05.697Z,14.27
2022-12-11T05:28:35.274Z,16.20
2022-12-11T05:31:17.385Z,14.20
2022-12-11T05:33:45.758Z,14.47
2022-12-11T05:36:18.507Z,13.90
2022-12-11T05:38:46.230Z,14.07
2022-12-11T05:41:16.303Z,15.10
2022-12-11T05:43:43.941Z,13.60
2022-12-11T05:46:20.649Z,14.83
2022-12-11T05:48:50.128Z,14.47
2022-12-11T05:51:18.504Z,15.27
2022-12-11T05:53:47.357Z,14.43
2022-12-11T05:56:19.555Z,14.43
2022-12-11T05:58:48.056Z,13.80
2022-12-11T06:01:23.252Z,13.30
2022-12-11T06:03:50.614Z,13.43
2022-12-11T06:06:18.099Z,14.73
2022-12-11T06:08:45.164Z,15.47
2022-12-11T06:11:15.680Z,15.17
2022-12-11T06:13:45.917Z,14.43
2022-12-11T06:16:13.262Z,15.93
2022-12-11T06:18:42.855Z,15.83
2022-12-11T06:21:19.432Z,17.10
2022-12-11T06:23:48.260Z,16.43
2022-12-11T06:26:16.743Z,15.87
2022-12-11T06:28:44.189Z,17.00
2022-12-11T06:31:12.255Z,15.73
2022-12-11T06:33:39.784Z,16.30
2022-12-11T06:36:14.353Z,15.97
2022-12-11T06:38:41.997Z,15.47
2022-12-11T06:41:09.633Z,17.10
2022-12-11T06:43:38.548Z,17.73
2022-12-11T06:46:07.497Z,16.70
2022-12-11T06:48:34.946Z,16.17
2022-12-11T06:51:13.382Z,16.20
2022-12-11T06:53:40.684Z,15.07
2022-12-11T06:56:13.752Z,15.13
2022-12-11T06:58:42.592Z,16.57
2022-12-11T07:01:24.631Z,16.03
2022-12-11T07:03:57.482Z,20.42
2022-12-11T07:06:26.635Z,18.87
2022-12-11T07:08:53.967Z,17.83
2022-12-11T07:11:21.905Z,19.42
2022-12-11T07:13:49.248Z,16.90
2022-12-11T07:16:17.669Z,17.37
2022-12-11T07:18:48.557Z,17.67
2022-12-11T07:21:15.845Z,17.27
2022-12-11T07:23:42.868Z,17.93
2022-12-11T07:26:15.704Z,17.83
2022-12-11T07:28:43.221Z,17.30
2022-12-11T07:31:21.571Z,17.17
2022-12-11T07:33:52.913Z,16.80
2022-12-11T07:36:19.983Z,17.17
2022-12-11T07:38:46.929Z,17.53
2022-12-11T07:41:15.526Z,15.93
2022-12-11T07:43:43.717Z,16.20
2022-12-11T07:46:17.239Z,16.87
2022-12-11T07:48:46.189Z,17.37
2022-12-11T07:51:25.151Z,19.03
2022-12-11T07:53:52.661Z,16.60
2022-12-11T07:56:20.520Z,17.77
2022-12-11T07:58:48.095Z,17.13
2022-12-11T08:01:20.725Z,17.73
2022-12-11T08:03:48.424Z,16.43
2022-12-11T08:06:15.564Z,16.73
2022-12-11T08:08:43.334Z,16.93
2022-12-11T08:11:14.458Z,17.13
2022-12-11T08:13:43.008Z,17.80
2022-12-11T08:16:13.171Z,16.17
2022-12-11T08:18:41.825Z,17.23
2022-12-11T08:21:11.158Z,17.03
2022-12-11T08:23:38.375Z,16.20
2022-12-11T08:26:07.830Z,17.53
2022-12-11T08:28:35.399Z,18.27
2022-12-11T08:31:06.017Z,17.60
2022-12-11T08:33:33.184Z,18.60
2022-12-11T08:36:07.291Z,18.67
2022-12-11T08:38:35.134Z,18.07
2022-12-11T08:41:16.447Z,16.33
2022-12-11T08:43:44.289Z,16.40
2022-12-11T08:46:13.011Z,14.10
2022-12-11T08:48:42.324Z,14.13
2022-12-11T08:51:13.235Z,14.30
2022-12-11T08:53:40.803Z,14.43
2022-12-11T08:56:19.485Z,14.07
2022-12-11T08:58:47.400Z,13.83
2022-12-11T09:01:23.527Z,13.83
2022-12-11T09:03:52.062Z,13.93
2022-12-11T09:06:21.778Z,16.07
2022-12-11T09:08:52.703Z,15.37
2022-12-11T09:11:23.597Z,15.43
2022-12-11T09:13:50.995Z,17.23
2022-12-11T09:16:20.729Z,17.73
2022-12-11T09:18:49.734Z,19.03
2022-12-11T09:21:21.184Z,17.50
2022-12-11T09:23:48.889Z,17.37
2022-12-11T09:26:18.060Z,19.03
2022-12-11T09:28:46.915Z,17.90
2022-12-11T09:31:29.919Z,17.60
2022-12-11T09:33:59.187Z,18.07
2022-12-11T09:36:26.456Z,17.07
2022-12-11T09:38:53.810Z,17.00
2022-12-11T09:41:23.725Z,14.33
2022-12-11T09:44:02.738Z,15.50
2022-12-11T09:46:34.120Z,16.80
2022-12-11T09:49:04.040Z,15.27
2022-12-11T09:52:02.305Z,16.53
2022-12-11T09:54:29.486Z,18.63
2022-12-11T09:57:31.979Z,16.80
2022-12-11T10:00:23.219Z,17.47
2022-12-11T10:03:21.941Z,16.53
2022-12-11T10:06:14.417Z,16.57
2022-12-11T10:09:39.446Z,16.97
2022-12-11T10:12:19.212Z,16.43
2022-12-11T10:14:57.936Z,17.07
2022-12-11T10:17:33.974Z,17.57
2022-12-11T10:20:18.031Z,17.40
2022-12-11T10:22:45.672Z,16.43
2022-12-11T10:25:42.260Z,16.57
2022-12-11T10:28:14.383Z,16.83
2022-12-11T10:30:59.667Z,15.73
2022-12-11T10:33:52.457Z,16.07
2022-12-11T10:36:26.157Z,15.27
2022-12-11T10:38:53.204Z,16.80
2022-12-11T10:41:24.743Z,15.20
2022-12-11T10:43:53.728Z,15.57
2022-12-11T10:46:28.417Z,14.80
2022-12-11T10:49:01.145Z,15.43
2022-12-11T10:51:31.942Z,14.47
2022-12-11T10:54:07.516Z,13.93
2022-12-11T10:56:37.730Z,14.33
2022-12-11T10:59:05.853Z,14.50
2022-12-11T11:01:33.295Z,15.70
2022-12-11T11:04:06.975Z,14.70
2022-12-11T11:06:34.529Z,13.90
2022-12-11T11:09:02.175Z,14.50
2022-12-11T11:11:36.963Z,13.60
2022-12-11T11:14:17.345Z,15.13
2022-12-11T11:16:47.962Z,15.67
2022-12-11T11:19:25.855Z,15.80
2022-12-11T11:21:57.868Z,16.30
2022-12-11T11:24:35.236Z,16.50
2022-12-11T11:27:18.525Z,13.73
2022-12-11T11:29:51.536Z,12.00
2022-12-11T11:32:33.545Z,13.33
2022-12-11T11:35:17.677Z,11.53
2022-12-11T11:37:56.924Z,10.97
2022-12-11T11:40:29.412Z,11.93
2022-12-11T11:42:59.301Z,11.87
2022-12-11T11:46:07.639Z,12.10
2022-12-11T11:49:06.355Z,11.37
2022-12-11T11:51:52.598Z,12.63
2022-12-11T11:54:50.295Z,12.83
2022-12-11T11:57:42.606Z,13.37
2022-12-11T12:00:19.286Z,13.13
2022-12-11T12:02:47.927Z,12.37
2022-12-11T12:05:17.761Z,13.73
2022-12-11T12:07:47.759Z,12.87
2022-12-11T12:10:31.013Z,11.83
2022-12-11T12:13:47.511Z,13.57
2022-12-11T12:16:02.905Z,13.00
2022-12-11T12:18:37.341Z,14.40
2022-12-11T12:21:20.488Z,14.60
2022-12-11T12:24:13.903Z,13.00
2022-12-11T12:26:52.594Z,13.97
2022-12-11T12:29:40.858Z,12.97
2022-12-11T12:32:29.584Z,13.93
2022-12-11T12:35:36.859Z,13.87
2022-12-11T12:38:29.478Z,14.87
2022-12-11T12:41:20.517Z,13.53
2022-12-11T12:44:14.537Z,15.50
2022-12-11T12:47:00.906Z,14.47
2022-12-11T12:49:33.586Z,13.20
2022-12-11T12:52:02.021Z,14.27
2022-12-11T12:54:32.098Z,15.03
2022-12-11T12:57:03.034Z,15.57
2022-12-11T12:59:30.361Z,15.00
2022-12-11T13:02:01.365Z,15.47
2022-12-11T13:04:55.573Z,14.13
2022-12-11T13:07:29.842Z,14.67
2022-12-11T13:10:24.255Z,13.53
2022-12-11T13:12:52.177Z,14.07
2022-12-11T13:15:29.875Z,14.33
2022-12-11T13:17:58.308Z,12.63
2022-12-11T13:20:33.401Z,15.57
2022-12-11T13:23:06.483Z,16.87
2022-12-11T13:25:50.811Z,15.17
2022-12-11T13:28:27.564Z,13.70
2022-12-11T13:31:00.288Z,14.00
2022-12-11T13:33:30.671Z,13.70
2022-12-11T13:36:16.705Z,15.43
2022-12-11T13:38:49.524Z,15.63
2022-12-11T13:41:18.713Z,15.90
2022-12-11T13:43:49.043Z,15.50
2022-12-11T13:46:22.781Z,16.87
2022-12-11T13:49:01.177Z,18.87
2022-12-11T13:51:31.343Z,18.57
2022-12-11T13:54:28.734Z,16.33
2022-12-11T13:57:14.377Z,17.07
2022-12-11T13:59:53.439Z,17.07
2022-12-11T14:02:30.169Z,17.40
2022-12-11T14:05:10.355Z,15.23
2022-12-11T14:07:52.119Z,15.77
2022-12-11T14:10:28.089Z,17.03
2022-12-11T14:13:06.386Z,17.80
2022-12-11T14:15:36.380Z,15.10
2022-12-11T14:18:05.105Z,16.60
2022-12-11T14:20:35.298Z,16.90
2022-12-11T14:23:23.867Z,17.90
2022-12-11T14:26:03.969Z,17.00
2022-12-11T14:28:38.963Z,15.80
2022-12-11T14:31:06.664Z,15.60
2022-12-11T14:33:38.797Z,17.10
2022-12-11T14:36:06.893Z,17.17
2022-12-11T14:38:37.535Z,20.93
2022-12-11T14:41:28.002Z,18.67
2022-12-11T14:43:59.479Z,17.17
2022-12-11T14:46:44.144Z,24.47
2022-12-11T14:49:39.124Z,17.00
2022-12-11T14:52:13.851Z,18.00
2022-12-11T14:54:46.224Z,19.33
2022-12-11T14:57:23.403Z,18.20
2022-12-11T14:59:52.893Z,18.77
2022-12-11T15:02:35.185Z,20.10
2022-12-11T15:05:14.033Z,42.27
2022-12-11T15:08:02.052Z,18.97
2022-12-11T15:10:36.100Z,26.30
2022-12-11T15:13:06.215Z,18.53
2022-12-11T15:15:45.517Z,16.07
2022-12-11T15:18:28.615Z,17.43
2022-12-11T15:21:02.814Z,17.30
2022-12-11T15:23:30.603Z,18.13
2022-12-11T15:26:00.073Z,18.70
2022-12-11T15:28:30.763Z,17.77
2022-12-11T15:31:00.804Z,16.80
2022-12-11T15:33:34.058Z,18.73
2022-12-11T15:36:03.041Z,19.03
2022-12-11T15:38:33.762Z,18.87
2022-12-11T15:41:02.414Z,19.33
2022-12-11T15:43:34.782Z,18.17
2022-12-11T15:46:03.740Z,19.57
2022-12-11T15:48:31.473Z,18.77
2022-12-11T15:50:59.107Z,18.60
2022-12-11T15:53:26.652Z,18.53
2022-12-11T15:55:54.171Z,18.37
2022-12-11T15:58:24.804Z,19.93
2022-12-11T16:00:52.233Z,19.80
2022-12-11T16:03:21.263Z,19.70
2022-12-11T16:05:50.319Z,20.33
2022-12-11T16:08:21.806Z,20.37
2022-12-11T16:10:50.917Z,18.73
2022-12-11T16:13:17.887Z,21.67
2022-12-11T16:15:46.969Z,18.97
2022-12-11T16:18:17.881Z,19.07
2022-12-11T16:20:46.670Z,20.10
2022-12-11T16:23:14.875Z,18.40
2022-12-11T16:25:43.403Z,20.23
2022-12-11T16:28:13.107Z,18.97
2022-12-11T16:30:40.314Z,24.83
2022-12-11T16:33:12.457Z,20.90
2022-12-11T16:35:41.797Z,20.27
2022-12-11T16:38:10.143Z,20.83
2022-12-11T16:40:37.910Z,17.97
2022-12-11T16:43:05.751Z,19.63
2022-12-11T16:45:33.041Z,19.87
2022-12-11T16:48:04.362Z,18.97
2022-12-11T16:50:32.656Z,18.40
2022-12-11T16:52:59.870Z,19.63
2022-12-11T16:55:27.446Z,19.13
2022-12-11T16:57:55.207Z,17.90
2022-12-11T17:00:22.652Z,19.10
2022-12-11T17:02:49.618Z,18.33
2022-12-11T17:05:16.870Z,19.53
2022-12-11T17:07:43.909Z,19.30
2022-12-11T17:10:11.242Z,18.03
2022-12-11T17:12:39.100Z,18.80
2022-12-11T17:15:06.736Z,19.27
2022-12-11T17:17:33.708Z,19.77
2022-12-11T17:20:00.669Z,18.40
2022-12-11T17:22:27.647Z,18.43
2022-12-11T17:24:55.061Z,18.80
2022-12-11T17:27:22.106Z,18.53
2022-12-11T17:29:49.703Z,19.37
2022-12-11T17:32:17.691Z,19.60
2022-12-11T17:34:45.647Z,20.60
2022-12-11T17:37:13.072Z,19.27
2022-12-11T17:39:40.159Z,19.60
2022-12-11T17:42:07.597Z,18.53
2022-12-11T17:44:34.676Z,19.30
2022-12-11T17:47:06.036Z,17.97
2022-12-11T17:49:36.186Z,18.60
2022-12-11T17:52:03.590Z,19.47
2022-12-11T17:54:30.518Z,17.87
2022-12-11T17:56:57.629Z,18.57
2022-12-11T17:59:24.603Z,18.80
2022-12-11T18:01:51.707Z,18.37
2022-12-11T18:04:18.666Z,16.93
2022-12-11T18:06:45.976Z,17.90
2022-12-11T18:09:12.972Z,19.53
2022-12-11T18:11:40.043Z,18.33
2022-12-11T18:14:07.858Z,17.17
2022-12-11T18:16:38.237Z,18.53
2022-12-11T18:19:08.462Z,17.83
2022-12-11T18:21:40.580Z,18.10
2022-12-11T18:24:08.835Z,18.00
2022-12-11T18:26:37.570Z,17.47
2022-12-11T18:29:05.172Z,17.83
2022-12-11T18:31:33.142Z,17.20
2022-12-11T18:34:02.322Z,17.80
2022-12-11T18:36:29.823Z,17.10
2022-12-11T18:38:56.775Z,19.20
2022-12-11T18:41:24.178Z,19.20
2022-12-11T18:43:51.163Z,18.63
2022-12-11T18:46:20.777Z,19.37
2022-12-11T18:48:48.513Z,19.33
2022-12-11T18:51:19.972Z,18.07
2022-12-11T18:53:47.096Z,19.70
2022-12-11T18:56:16.215Z,19.53
2022-12-11T18:58:43.993Z,20.37
2022-12-11T19:01:20.849Z,19.67
2022-12-11T19:03:48.322Z,20.03
2022-12-11T19:06:20.814Z,20.87
2022-12-11T19:08:48.210Z,19.97
2022-12-11T19:11:21.452Z,20.80
2022-12-11T19:13:48.918Z,19.40
2022-12-11T19:16:17.662Z,18.70
2022-12-11T19:18:44.832Z,18.23
2022-12-11T19:21:13.500Z,20.37
2022-12-11T19:23:41.651Z,20.30
2022-12-11T19:26:13.685Z,19.00
2022-12-11T19:28:40.761Z,18.57
2022-12-11T19:31:12.989Z,18.83
2022-12-11T19:33:41.213Z,20.10
2022-12-11T19:36:12.403Z,20.43
2022-12-11T19:38:40.904Z,19.80
2022-12-11T19:41:19.843Z,19.80
2022-12-11T19:43:46.987Z,17.93
2022-12-11T19:46:14.625Z,17.53
2022-12-11T19:48:42.124Z,18.00
2022-12-11T19:51:13.194Z,18.00
2022-12-11T19:53:41.913Z,18.97
2022-12-11T19:56:09.340Z,18.60
2022-12-11T19:58:36.648Z,17.73
2022-12-11T20:01:04.104Z,18.97
2022-12-11T20:03:31.899Z,18.80
2022-12-11T20:06:07.620Z,19.70
2022-12-11T20:08:44.680Z,18.30
2022-12-11T20:11:17.836Z,20.07
2022-12-11T20:13:46.375Z,19.13
2022-12-11T20:16:14.701Z,19.33
2022-12-11T20:18:41.809Z,19.37
2022-12-11T20:21:12.677Z,19.20
2022-12-11T20:23:39.893Z,19.27
2022-12-11T20:26:09.041Z,18.20
2022-12-11T20:28:36.381Z,20.53
2022-12-11T20:31:13.606Z,19.93
2022-12-11T20:33:43.591Z,20.57
2022-12-11T20:36:12.869Z,20.10
2022-12-11T20:38:40.327Z,19.70
2022-12-11T20:41:11.289Z,18.77
2022-12-11T20:43:39.591Z,19.10
2022-12-11T20:46:08.009Z,19.87
2022-12-11T20:48:35.520Z,19.50
2022-12-11T20:51:05.326Z,19.13
2022-12-11T20:53:32.334Z,20.63
2022-12-11T20:55:59.284Z,19.70
2022-12-11T20:58:26.284Z,19.57
2022-12-11T21:00:53.404Z,20.60
2022-12-11T21:03:20.444Z,20.23
2022-12-11T21:05:47.455Z,21.33
2022-12-11T21:08:14.569Z,19.30
2022-12-11T21:10:43.895Z,20.50
2022-12-11T21:13:11.064Z,19.30
2022-12-11T21:15:39.519Z,21.83
2022-12-11T21:18:07.972Z,20.17
2022-12-11T21:20:35.741Z,19.40
2022-12-11T21:23:03.883Z,19.00
2022-12-11T21:25:30.847Z,18.97
2022-12-11T21:27:57.783Z,20.13
2022-12-11T21:30:24.889Z,19.80
2022-12-11T21:32:51.887Z,19.37
2022-12-11T21:35:19.053Z,18.30
2022-12-11T21:37:46.125Z,19.60
2022-12-11T21:40:13.615Z,19.93
2022-12-11T21:42:40.565Z,19.30
2022-12-11T21:45:52.175Z,20.03
2022-12-11T21:47:54.920Z,20.17
2022-12-11T21:50:22.027Z,18.17
2022-12-11T21:52:49.076Z,18.97
2022-12-11T21:55:18.254Z,18.50
2022-12-11T21:57:45.361Z,19.73
2022-12-11T22:00:12.979Z,19.60
2022-12-11T22:02:41.262Z,19.73
2022-12-11T22:05:09.111Z,22.03
2022-12-11T22:07:36.235Z,20.50
2022-12-11T22:10:04.178Z,19.93
2022-12-11T22:12:31.325Z,20.57
2022-12-11T22:14:58.471Z,18.83
2022-12-11T22:17:25.394Z,18.07
2022-12-11T22:19:52.457Z,17.40
2022-12-11T22:22:19.626Z,18.30
2022-12-11T22:24:47.102Z,18.10
2022-12-11T22:27:17.843Z,18.23
2022-12-11T22:29:47.455Z,16.17
2022-12-11T22:32:14.518Z,17.90
2022-12-11T22:34:41.540Z,18.90
2022-12-11T22:37:08.454Z,18.23
2022-12-11T22:39:35.625Z,18.37
2022-12-11T22:42:02.555Z,17.33
2022-12-11T22:44:29.490Z,18.90
2022-12-11T22:46:57.480Z,19.10
2022-12-11T22:49:24.415Z,18.33
2022-12-11T22:51:51.635Z,18.10
2022-12-11T22:54:18.617Z,16.80
2022-12-11T22:56:45.728Z,17.73
2022-12-11T22:59:12.688Z,17.93
2022-12-11T23:01:39.695Z,17.97
2022-12-11T23:04:06.816Z,18.87
2022-12-11T23:06:33.785Z,18.57
2022-12-11T23:09:01.297Z,18.77
2022-12-11T23:11:32.421Z,18.70
2022-12-11T23:13:59.380Z,19.07
2022-12-11T23:16:27.435Z,19.50
2022-12-11T23:18:55.484Z,18.40
2022-12-11T23:21:23.512Z,20.50
2022-12-11T23:23:50.953Z,19.40
2022-12-11T23:26:19.327Z,18.83
2022-12-11T23:28:47.311Z,19.10
2022-12-11T23:31:15.242Z,19.40
2022-12-11T23:33:42.631Z,18.97
2022-12-11T23:36:10.026Z,20.13
2022-12-11T23:38:37.662Z,18.83
2022-12-11T23:41:05.988Z,18.87
2022-12-11T23:43:35.225Z,19.70
2022-12-11T23:46:08.098Z,17.30
2022-12-11T23:48:35.211Z,18.43
2022-12-11T23:51:04.124Z,19.67
2022-12-11T23:53:31.319Z,19.47
2022-12-11T23:56:06.612Z,19.70
2022-12-11T23:58:37.151Z,19.37
